Hudson Mills, Michigan
Current Conditions -  °F | °C
As of 3:53 PM on Friday 24 Oct 2014 (Local Time) from KARB Reporting Station
Overcast Overcast  
Wind Chill: 16°   Ceiling: 3500
Heat Index: 16°   Visibility: 10mi
Dew Point:   Wind: 8mph
Humidity: 53%   Direction: 220°SW
Pressure: 29.99"   Gusts: NA
Location:  42.3528°N, 83.8974°W
Report Text: KARB 241953Z 22007KT 10SM OVC035 16/06 A2999 RMK AO2 SLP158 T01560061
Loading
Personal Weather Stations






























Interactive Weather Map
Tropical Storm Tracking
New forecast layout! Learn more

10-Day Weather Forecast

Advertisements
Track Severe Weather on mobile